createdAt,value
2018-10-02T00:02:04.394Z,55.12
2018-10-02T00:04:31.724Z,54.41
2018-10-02T00:06:59.014Z,55.13
2018-10-02T00:09:26.850Z,54.35
2018-10-02T00:11:59.810Z,54.93
2018-10-02T00:14:28.723Z,55.77
2018-10-02T00:16:56.468Z,55.55
2018-10-02T00:19:23.950Z,55.96
2018-10-02T00:21:51.260Z,55.79
2018-10-02T00:24:18.779Z,55.49
2018-10-02T00:26:46.113Z,55.08
2018-10-02T00:29:13.749Z,55.96
2018-10-02T00:31:41.034Z,55.27
2018-10-02T00:34:08.799Z,55.04
2018-10-02T00:36:36.142Z,55.44
2018-10-02T00:39:04.507Z,55.82
2018-10-02T00:41:31.771Z,55.14
2018-10-02T00:43:59.113Z,55.36
2018-10-02T00:46:26.480Z,55.96
2018-10-02T00:48:53.803Z,54.46
2018-10-02T00:51:21.125Z,55.93
2018-10-02T00:53:48.511Z,54.96
2018-10-02T00:56:15.928Z,55.42
2018-10-02T00:58:43.175Z,55.38
2018-10-02T01:01:10.450Z,55.31
2018-10-02T01:03:37.761Z,55.18
2018-10-02T01:06:05.283Z,54.72
2018-10-02T01:08:32.696Z,55.45
2018-10-02T01:11:00.051Z,54.20
2018-10-02T01:13:27.457Z,55.57
2018-10-02T01:15:54.705Z,55.17
2018-10-02T01:18:22.012Z,54.43
2018-10-02T01:20:49.271Z,56.06
2018-10-02T01:23:16.602Z,55.13
2018-10-02T01:25:43.892Z,54.51
2018-10-02T01:28:11.133Z,54.22
2018-10-02T01:30:38.423Z,55.44
2018-10-02T01:33:05.992Z,54.16
2018-10-02T01:35:33.254Z,55.76
2018-10-02T01:38:00.518Z,54.72
2018-10-02T01:40:27.748Z,55.84
2018-10-02T01:42:55.046Z,56.18
2018-10-02T01:45:22.490Z,56.39
2018-10-02T01:47:49.764Z,56.49
2018-10-02T01:50:17.026Z,55.62
2018-10-02T01:52:45.076Z,55.48
2018-10-02T01:55:12.683Z,56.71
2018-10-02T01:57:40.006Z,56.99
2018-10-02T02:00:07.594Z,56.01
2018-10-02T02:02:35.071Z,55.90
2018-10-02T02:05:02.348Z,56.57
2018-10-02T02:07:29.781Z,55.31
2018-10-02T02:09:57.034Z,54.78
2018-10-02T02:12:24.286Z,55.95
2018-10-02T02:14:51.725Z,56.60
2018-10-02T02:17:19.045Z,56.73
2018-10-02T02:19:46.420Z,57.58
2018-10-02T02:22:13.661Z,55.71
2018-10-02T02:24:40.936Z,55.75
2018-10-02T02:27:08.313Z,56.23
2018-10-02T02:29:35.605Z,55.19
2018-10-02T02:32:02.953Z,55.47
2018-10-02T02:34:30.179Z,55.29
2018-10-02T02:36:57.633Z,55.37
2018-10-02T02:39:24.871Z,55.68
2018-10-02T02:41:52.148Z,55.14
2018-10-02T02:44:20.048Z,55.48
2018-10-02T02:46:47.445Z,54.91
2018-10-02T02:49:20.494Z,54.75
2018-10-02T02:51:47.991Z,55.39
2018-10-02T02:54:15.253Z,55.58
2018-10-02T02:56:42.512Z,56.55
2018-10-02T02:59:09.782Z,55.39
2018-10-02T03:01:37.125Z,56.49
2018-10-02T03:04:04.406Z,55.90
2018-10-02T03:06:31.730Z,55.76
2018-10-02T03:08:59.548Z,55.48
2018-10-02T03:11:27.036Z,55.64
2018-10-02T03:13:55.042Z,56.96
2018-10-02T03:16:22.326Z,57.01
2018-10-02T03:18:49.676Z,56.27
2018-10-02T03:21:17.160Z,56.33
2018-10-02T03:23:44.515Z,55.65
2018-10-02T03:26:12.058Z,56.20
2018-10-02T03:28:39.434Z,55.63
2018-10-02T03:31:06.754Z,55.36
2018-10-02T03:33:34.055Z,57.40
2018-10-02T03:36:01.369Z,56.37
2018-10-02T03:38:28.728Z,55.56
2018-10-02T03:40:55.999Z,56.32
2018-10-02T03:43:23.707Z,55.76
2018-10-02T03:45:50.978Z,55.90
2018-10-02T03:48:18.313Z,56.36
2018-10-02T03:50:45.676Z,57.09
2018-10-02T03:53:12.954Z,56.70
2018-10-02T03:55:40.201Z,56.07
2018-10-02T03:58:07.521Z,57.25
2018-10-02T04:00:35.411Z,56.90
2018-10-02T04:03:02.729Z,57.60
2018-10-02T04:05:30.122Z,56.52
2018-10-02T04:07:57.622Z,56.32
2018-10-02T04:10:25.489Z,56.76
2018-10-02T04:12:52.876Z,56.45
2018-10-02T04:15:20.186Z,55.50
2018-10-02T04:17:47.713Z,55.42
2018-10-02T04:20:15.144Z,54.86
2018-10-02T04:22:42.386Z,55.71
2018-10-02T04:25:09.672Z,55.60
2018-10-02T04:27:37.066Z,54.43
2018-10-02T04:30:05.056Z,56.36
2018-10-02T04:32:32.422Z,56.89
2018-10-02T04:34:59.694Z,56.89
2018-10-02T04:37:26.952Z,55.37
2018-10-02T04:39:54.194Z,55.62
2018-10-02T04:42:21.535Z,55.22
2018-10-02T04:44:48.871Z,55.54
2018-10-02T04:47:16.268Z,54.54
2018-10-02T04:49:43.496Z,55.29
2018-10-02T04:52:10.774Z,55.44
2018-10-02T04:54:38.130Z,56.17
2018-10-02T04:57:05.481Z,54.40
2018-10-02T04:59:32.883Z,55.05
2018-10-02T05:02:00.177Z,55.56
2018-10-02T05:04:27.545Z,55.65
2018-10-02T05:06:55.610Z,56.20
2018-10-02T05:09:22.873Z,54.89
2018-10-02T05:11:50.123Z,55.28
2018-10-02T05:14:17.462Z,54.94
2018-10-02T05:16:44.697Z,55.94
2018-10-02T05:19:11.983Z,55.94
2018-10-02T05:21:39.356Z,54.39
2018-10-02T05:24:07.117Z,55.78
2018-10-02T05:26:34.391Z,54.97
2018-10-02T05:29:01.957Z,54.06
2018-10-02T05:31:29.424Z,54.01
2018-10-02T05:33:56.844Z,54.83
2018-10-02T05:36:24.105Z,55.07
2018-10-02T05:38:51.386Z,56.21
2018-10-02T05:41:18.648Z,55.98
2018-10-02T05:43:45.984Z,54.29
2018-10-02T05:46:13.341Z,52.84
2018-10-02T05:48:40.776Z,54.89
2018-10-02T05:51:08.060Z,55.97
2018-10-02T05:53:35.899Z,55.60
2018-10-02T05:56:03.546Z,55.12
2018-10-02T05:58:30.894Z,54.00
2018-10-02T06:00:58.255Z,54.41
2018-10-02T06:03:25.720Z,54.65
2018-10-02T06:05:53.084Z,54.46
2018-10-02T06:08:20.538Z,53.83
2018-10-02T06:10:47.949Z,54.23
2018-10-02T06:13:15.303Z,54.84
2018-10-02T06:15:42.687Z,55.76
2018-10-02T06:18:10.021Z,56.33
2018-10-02T06:20:37.364Z,55.95
2018-10-02T06:23:04.752Z,54.55
2018-10-02T06:25:32.076Z,55.02
2018-10-02T06:27:59.527Z,55.86
2018-10-02T06:30:26.803Z,56.68
2018-10-02T06:32:54.092Z,55.67
2018-10-02T06:35:21.387Z,55.11
2018-10-02T06:37:48.667Z,54.40
2018-10-02T06:40:16.093Z,54.55
2018-10-02T06:42:43.347Z,55.85
2018-10-02T06:45:10.673Z,55.47
2018-10-02T06:47:38.331Z,54.91
2018-10-02T06:50:05.730Z,55.78
2018-10-02T06:52:33.323Z,55.70
2018-10-02T06:55:00.797Z,55.30
2018-10-02T06:57:28.075Z,54.10
2018-10-02T06:59:55.392Z,56.04
2018-10-02T07:02:22.685Z,56.04
2018-10-02T07:04:49.977Z,54.87
2018-10-02T07:07:17.271Z,54.06
2018-10-02T07:09:44.581Z,55.20
2018-10-02T07:12:11.845Z,56.08
2018-10-02T07:14:39.284Z,56.96
2018-10-02T07:17:06.722Z,57.60
2018-10-02T07:19:34.012Z,57.84
2018-10-02T07:22:01.319Z,55.79
2018-10-02T07:24:28.636Z,56.27
2018-10-02T07:26:56.827Z,56.53
2018-10-02T07:29:24.468Z,57.42
2018-10-02T07:31:51.766Z,57.84
2018-10-02T07:34:19.039Z,58.17
2018-10-02T07:36:46.366Z,57.44
2018-10-02T07:39:13.627Z,57.72
2018-10-02T07:41:41.042Z,57.76
2018-10-02T07:44:08.547Z,57.49
2018-10-02T07:46:36.541Z,57.53
2018-10-02T07:49:04.031Z,58.10
2018-10-02T07:51:31.347Z,59.58
2018-10-02T07:53:59.378Z,57.58
2018-10-02T07:56:27.417Z,57.73
2018-10-02T07:58:55.361Z,58.55
2018-10-02T08:01:22.675Z,57.54
2018-10-02T08:03:50.002Z,57.21
2018-10-02T08:06:17.422Z,58.11
2018-10-02T08:08:44.782Z,58.57
2018-10-02T08:11:12.922Z,59.36
2018-10-02T08:13:40.536Z,59.01
2018-10-02T08:16:07.988Z,59.49
2018-10-02T08:18:35.425Z,58.42
2018-10-02T08:21:02.837Z,57.85
2018-10-02T08:23:30.290Z,58.41
2018-10-02T08:25:57.604Z,58.16
2018-10-02T08:28:25.490Z,58.04
2018-10-02T08:30:52.890Z,59.29
2018-10-02T08:33:20.202Z,58.43
2018-10-02T08:35:47.739Z,58.88
2018-10-02T08:38:14.925Z,58.90
2018-10-02T08:40:42.516Z,58.64
2018-10-02T08:43:10.061Z,58.03
2018-10-02T08:45:38.819Z,57.21
2018-10-02T08:48:06.282Z,56.06
2018-10-02T08:50:33.975Z,57.18
2018-10-02T08:53:01.350Z,56.52
2018-10-02T08:55:28.733Z,55.77
2018-10-02T08:57:56.192Z,55.76
2018-10-02T09:00:23.749Z,56.76
2018-10-02T09:02:51.377Z,56.69
2018-10-02T09:05:18.767Z,55.74
2018-10-02T09:07:46.037Z,56.74
2018-10-02T09:10:13.525Z,57.14
2018-10-02T09:12:40.927Z,57.67
2018-10-02T09:15:12.158Z,57.21
2018-10-02T09:17:35.695Z,57.50
2018-10-02T09:20:03.341Z,58.20
2018-10-02T09:22:30.637Z,57.27
2018-10-02T09:24:58.020Z,57.91
2018-10-02T09:27:25.227Z,56.23
2018-10-02T09:29:58.193Z,56.30
2018-10-02T09:32:31.185Z,56.37
2018-10-02T09:35:04.229Z,55.95
2018-10-02T09:37:37.275Z,55.58
2018-10-02T09:40:10.495Z,56.39
2018-10-02T09:42:43.617Z,56.98
2018-10-02T09:45:11.093Z,55.11
2018-10-02T09:47:39.008Z,55.60
2018-10-02T09:50:06.350Z,56.03
2018-10-02T09:52:33.943Z,55.67
2018-10-02T09:55:01.241Z,55.54
2018-10-02T09:57:28.560Z,57.20
2018-10-02T09:59:55.970Z,57.27
2018-10-02T10:02:28.808Z,58.06
2018-10-02T10:04:56.112Z,57.65
2018-10-02T10:07:24.161Z,57.34
2018-10-02T10:09:51.474Z,57.62
2018-10-02T10:12:18.781Z,57.63
2018-10-02T10:14:46.308Z,58.19
2018-10-02T10:17:13.801Z,57.37
2018-10-02T10:19:41.053Z,57.18
2018-10-02T10:22:08.336Z,59.32
2018-10-02T10:24:35.742Z,58.89
2018-10-02T10:27:03.024Z,59.15
2018-10-02T10:29:30.329Z,58.49
2018-10-02T10:31:57.631Z,58.44
2018-10-02T10:34:25.102Z,57.65
2018-10-02T10:36:52.362Z,58.01
2018-10-02T10:39:20.103Z,57.19
2018-10-02T10:41:47.558Z,57.55
2018-10-02T10:44:15.499Z,56.64
2018-10-02T10:46:43.007Z,57.87
2018-10-02T10:49:10.367Z,58.80
2018-10-02T10:51:37.866Z,58.47
2018-10-02T10:54:05.174Z,58.66
2018-10-02T10:56:32.583Z,59.50
2018-10-02T10:58:59.804Z,59.43
2018-10-02T11:01:27.085Z,59.28
2018-10-02T11:03:54.438Z,58.81
2018-10-02T11:06:21.782Z,58.21
2018-10-02T11:08:49.162Z,58.55
2018-10-02T11:11:17.001Z,60.35
2018-10-02T11:13:44.285Z,59.45
2018-10-02T11:16:11.675Z,60.19
2018-10-02T11:18:39.094Z,60.00
2018-10-02T11:21:06.408Z,60.56
2018-10-02T11:23:34.105Z,59.12
2018-10-02T11:26:02.016Z,59.76
2018-10-02T11:28:29.428Z,61.04
2018-10-02T11:30:57.586Z,59.63
2018-10-02T11:33:24.901Z,59.14
2018-10-02T11:35:52.332Z,60.62
2018-10-02T11:38:19.668Z,59.79
2018-10-02T11:40:47.346Z,59.72
2018-10-02T11:43:14.653Z,59.46
2018-10-02T11:45:42.380Z,59.55
2018-10-02T11:48:09.765Z,60.05
2018-10-02T11:50:37.226Z,60.54
2018-10-02T11:53:04.944Z,60.71
2018-10-02T11:55:32.294Z,58.99
2018-10-02T11:57:59.673Z,58.63
2018-10-02T12:00:27.131Z,60.01
2018-10-02T12:02:54.652Z,61.03
2018-10-02T12:05:21.988Z,60.87
2018-10-02T12:07:49.387Z,61.76
2018-10-02T12:10:16.663Z,60.85
2018-10-02T12:12:43.985Z,59.94
2018-10-02T12:15:11.592Z,60.46
2018-10-02T12:17:42.597Z,63.36
2018-10-02T12:20:10.049Z,61.69
2018-10-02T12:22:37.346Z,60.90
2018-10-02T12:25:04.677Z,61.09
2018-10-02T12:27:32.027Z,60.21
2018-10-02T12:29:59.371Z,60.28
2018-10-02T12:32:26.811Z,60.88
2018-10-02T12:34:54.166Z,60.06
2018-10-02T12:37:21.519Z,59.40
2018-10-02T12:39:48.881Z,59.14
2018-10-02T12:42:16.160Z,61.78
2018-10-02T12:44:43.436Z,61.96
2018-10-02T12:47:10.745Z,62.91
2018-10-02T12:49:38.135Z,62.47
2018-10-02T12:52:05.429Z,61.40
2018-10-02T12:54:32.853Z,61.49
2018-10-02T12:57:00.270Z,61.39
2018-10-02T12:59:27.722Z,62.13
2018-10-02T13:01:54.970Z,62.16
2018-10-02T13:04:22.355Z,60.78
2018-10-02T13:06:49.735Z,61.07
2018-10-02T13:09:17.098Z,60.36
2018-10-02T13:11:44.386Z,60.25
2018-10-02T13:14:11.790Z,62.06
2018-10-02T13:16:39.207Z,62.68
2018-10-02T13:19:06.510Z,62.67
2018-10-02T13:21:33.873Z,63.08
2018-10-02T13:24:01.180Z,62.23
2018-10-02T13:26:28.525Z,62.35
2018-10-02T13:29:00.292Z,60.11
2018-10-02T13:31:27.604Z,61.00
2018-10-02T13:33:54.892Z,61.93
2018-10-02T13:36:22.160Z,61.14
2018-10-02T13:38:49.460Z,62.17
2018-10-02T13:41:16.745Z,62.54
2018-10-02T13:43:44.051Z,61.49
2018-10-02T13:46:11.387Z,63.17
2018-10-02T13:48:38.711Z,63.82
2018-10-02T13:51:06.278Z,62.53
2018-10-02T13:53:33.571Z,61.53
2018-10-02T13:56:00.961Z,63.23
2018-10-02T13:58:28.262Z,61.18
2018-10-02T14:00:55.673Z,61.79
2018-10-02T14:03:23.003Z,62.21
2018-10-02T14:05:50.302Z,63.26
2018-10-02T14:08:17.772Z,62.74
2018-10-02T14:10:45.031Z,61.28
2018-10-02T14:13:12.355Z,61.72
2018-10-02T14:15:39.674Z,63.07
2018-10-02T14:18:06.955Z,62.99
2018-10-02T14:20:34.283Z,62.60
2018-10-02T14:23:01.650Z,63.24
2018-10-02T14:25:28.917Z,62.07
2018-10-02T14:27:56.264Z,62.36
2018-10-02T14:30:23.570Z,63.38
2018-10-02T14:32:50.886Z,64.37
2018-10-02T14:35:18.249Z,62.90
2018-10-02T14:37:45.589Z,62.98
2018-10-02T14:40:12.888Z,61.33
2018-10-02T14:42:40.224Z,61.13
2018-10-02T14:45:07.529Z,61.13
2018-10-02T14:47:34.892Z,61.97
2018-10-02T14:50:02.188Z,60.87
2018-10-02T14:52:29.610Z,61.04
2018-10-02T14:54:56.930Z,62.53
2018-10-02T14:57:24.262Z,62.85
2018-10-02T14:59:52.216Z,61.17
2018-10-02T15:02:19.466Z,62.21
2018-10-02T15:04:47.493Z,62.94
2018-10-02T15:07:14.762Z,61.37
2018-10-02T15:09:42.842Z,61.16
2018-10-02T15:12:10.884Z,59.89
2018-10-02T15:14:38.281Z,61.41
2018-10-02T15:17:05.673Z,61.36
2018-10-02T15:19:32.972Z,60.04
2018-10-02T15:22:00.625Z,60.66
2018-10-02T15:24:28.945Z,62.03
2018-10-02T15:26:57.595Z,60.33
2018-10-02T15:29:24.865Z,61.20
2018-10-02T15:31:52.257Z,60.29
2018-10-02T15:34:19.587Z,61.83
2018-10-02T15:36:46.877Z,61.42
2018-10-02T15:39:14.349Z,60.51
2018-10-02T15:41:42.177Z,60.99
2018-10-02T15:44:10.227Z,60.07
2018-10-02T15:46:37.546Z,59.97
2018-10-02T15:49:05.439Z,61.25
2018-10-02T15:51:32.772Z,62.21
2018-10-02T15:54:00.447Z,61.30
2018-10-02T15:56:27.884Z,60.26
2018-10-02T15:58:55.254Z,62.80
2018-10-02T16:01:22.740Z,60.21
2018-10-02T16:03:50.709Z,59.63
2018-10-02T16:06:18.055Z,60.32
2018-10-02T16:08:45.376Z,60.49
2018-10-02T16:11:12.791Z,60.77
2018-10-02T16:13:40.136Z,61.58
2018-10-02T16:16:08.152Z,59.98
2018-10-02T16:18:36.045Z,61.55
2018-10-02T16:21:03.439Z,60.63
2018-10-02T16:23:30.729Z,60.37
2018-10-02T16:25:58.136Z,60.80
2018-10-02T16:28:25.458Z,60.25
2018-10-02T16:30:52.906Z,61.59
2018-10-02T16:33:20.242Z,62.45
2018-10-02T16:35:47.582Z,62.94
2018-10-02T16:38:15.035Z,62.66
2018-10-02T16:40:42.452Z,62.79
2018-10-02T16:43:09.680Z,62.68
2018-10-02T16:45:37.054Z,62.35
2018-10-02T16:48:04.468Z,61.78
2018-10-02T16:50:31.840Z,61.17
2018-10-02T16:52:59.301Z,62.10
2018-10-02T16:55:26.605Z,61.62
2018-10-02T16:57:54.051Z,61.79
2018-10-02T17:00:21.449Z,62.27
2018-10-02T17:02:48.743Z,63.21
2018-10-02T17:05:16.121Z,61.60
2018-10-02T17:07:43.565Z,61.90
2018-10-02T17:10:10.965Z,61.96
2018-10-02T17:12:39.352Z,63.46
2018-10-02T17:15:07.227Z,64.39
2018-10-02T17:17:34.520Z,63.36
2018-10-02T17:20:01.945Z,62.47
2018-10-02T17:22:29.439Z,62.93
2018-10-02T17:24:58.088Z,62.04
2018-10-02T17:27:25.623Z,63.36
2018-10-02T17:29:52.927Z,62.29
2018-10-02T17:32:20.399Z,62.60
2018-10-02T17:34:47.659Z,62.49
2018-10-02T17:37:14.947Z,62.36
2018-10-02T17:39:42.221Z,62.91
2018-10-02T17:42:09.635Z,63.84
2018-10-02T17:44:37.014Z,65.00
2018-10-02T17:47:04.341Z,63.22
2018-10-02T17:49:31.729Z,61.83
2018-10-02T17:51:59.018Z,63.43
2018-10-02T17:54:26.408Z,62.89
2018-10-02T17:56:53.912Z,61.78
2018-10-02T17:59:21.289Z,60.57
2018-10-02T18:01:48.605Z,63.68
2018-10-02T18:04:15.873Z,62.04
2018-10-02T18:06:43.316Z,60.60
2018-10-02T18:09:10.809Z,61.17
2018-10-02T18:11:38.224Z,61.78
2018-10-02T18:14:05.512Z,60.67
2018-10-02T18:16:32.838Z,60.39
2018-10-02T18:19:00.173Z,60.77
2018-10-02T18:21:28.416Z,61.60
2018-10-02T18:23:55.805Z,61.30
2018-10-02T18:26:23.224Z,62.03
2018-10-02T18:28:56.609Z,60.71
2018-10-02T18:31:24.200Z,62.27
2018-10-02T18:33:51.500Z,62.36
2018-10-02T18:36:18.952Z,60.71
2018-10-02T18:38:46.383Z,60.43
2018-10-02T18:41:13.712Z,60.76
2018-10-02T18:43:41.105Z,60.91
2018-10-02T18:46:08.420Z,60.92
2018-10-02T18:48:35.714Z,61.81
2018-10-02T18:51:03.038Z,61.88
2018-10-02T18:53:30.361Z,60.18
2018-10-02T18:55:57.809Z,59.94
2018-10-02T18:58:25.162Z,59.83
2018-10-02T19:00:52.473Z,59.59
2018-10-02T19:03:19.780Z,60.60
2018-10-02T19:05:47.121Z,59.25
2018-10-02T19:08:14.628Z,59.90
2018-10-02T19:10:42.074Z,60.05
2018-10-02T19:13:09.492Z,59.44
2018-10-02T19:15:43.413Z,59.36
2018-10-02T19:18:10.756Z,59.01
2018-10-02T19:20:52.911Z,58.52
2018-10-02T19:23:20.374Z,59.13
2018-10-02T19:25:53.344Z,58.98
2018-10-02T19:28:20.715Z,58.79
2018-10-02T19:31:57.162Z,59.58
2018-10-02T19:34:24.505Z,59.01
2018-10-02T19:36:51.807Z,58.64
2018-10-02T19:39:21.127Z,59.56
2018-10-02T19:41:48.523Z,59.12
2018-10-02T19:44:15.867Z,60.17
2018-10-02T19:46:48.694Z,59.04
2018-10-02T19:49:18.315Z,59.33
2018-10-02T19:51:51.799Z,58.79
2018-10-02T19:54:19.214Z,57.73
2018-10-02T19:56:46.615Z,57.86
2018-10-02T19:59:14.509Z,57.55
2018-10-02T20:01:41.857Z,58.16
2018-10-02T20:04:09.241Z,58.60
2018-10-02T20:06:36.463Z,57.95
2018-10-02T20:09:05.381Z,58.15
2018-10-02T20:11:32.775Z,59.41
2018-10-02T20:14:00.323Z,58.04
2018-10-02T20:16:27.857Z,58.91
2018-10-02T20:18:55.192Z,59.32
2018-10-02T20:21:22.569Z,58.24
2018-10-02T20:23:49.885Z,57.76
2018-10-02T20:26:17.427Z,58.18
2018-10-02T20:28:44.812Z,59.09
2018-10-02T20:31:12.144Z,58.61
2018-10-02T20:33:40.012Z,58.36
2018-10-02T20:36:07.496Z,57.69
2018-10-02T20:38:34.803Z,58.62
2018-10-02T20:41:02.381Z,58.75
2018-10-02T20:43:29.676Z,58.15
2018-10-02T20:45:57.451Z,58.41
2018-10-02T20:48:24.795Z,56.86
2018-10-02T20:50:52.300Z,58.17
2018-10-02T20:53:20.445Z,56.72
2018-10-02T20:55:47.906Z,57.03
2018-10-02T20:58:15.512Z,57.55
2018-10-02T21:00:42.846Z,57.77
2018-10-02T21:03:10.242Z,57.37
2018-10-02T21:05:37.529Z,57.86
2018-10-02T21:08:04.814Z,55.94
2018-10-02T21:10:32.304Z,55.76
2018-10-02T21:12:59.741Z,56.40
2018-10-02T21:15:27.101Z,54.40
2018-10-02T21:17:54.511Z,56.60
2018-10-02T21:20:21.956Z,57.10
2018-10-02T21:22:49.315Z,57.16
2018-10-02T21:25:16.677Z,54.75
2018-10-02T21:27:44.134Z,58.21
2018-10-02T21:30:11.395Z,55.91
2018-10-02T21:32:38.907Z,56.09
2018-10-02T21:35:06.218Z,55.36
2018-10-02T21:37:33.677Z,56.06
2018-10-02T21:40:01.012Z,55.36
2018-10-02T21:42:28.319Z,55.54
2018-10-02T21:44:55.636Z,54.84
2018-10-02T21:47:29.641Z,55.95
2018-10-02T21:49:57.037Z,54.98
2018-10-02T21:52:24.308Z,55.46
2018-10-02T21:54:51.592Z,56.04
2018-10-02T21:57:18.904Z,55.08
2018-10-02T21:59:46.146Z,54.14
2018-10-02T22:02:13.529Z,54.24
2018-10-02T22:04:41.150Z,55.46
2018-10-02T22:07:08.675Z,54.35
2018-10-02T22:09:36.035Z,54.85
2018-10-02T22:12:03.607Z,55.96
2018-10-02T22:14:30.908Z,55.30
2018-10-02T22:16:58.218Z,55.88
2018-10-02T22:19:25.652Z,55.41
2018-10-02T22:21:52.984Z,56.13
2018-10-02T22:24:20.327Z,54.34
2018-10-02T22:26:47.611Z,54.91
2018-10-02T22:29:15.046Z,54.45
2018-10-02T22:31:42.379Z,54.61
2018-10-02T22:34:09.691Z,53.99
2018-10-02T22:36:37.033Z,53.71
2018-10-02T22:39:05.865Z,54.62
2018-10-02T22:41:33.143Z,54.88
2018-10-02T22:44:00.570Z,55.76
2018-10-02T22:46:27.853Z,54.85
2018-10-02T22:48:55.199Z,54.35
2018-10-02T22:51:22.634Z,54.74
2018-10-02T22:53:49.951Z,54.15
2018-10-02T22:56:17.235Z,54.60
2018-10-02T22:58:44.551Z,54.81
2018-10-02T23:01:11.850Z,54.50
2018-10-02T23:03:39.132Z,53.51
2018-10-02T23:06:06.417Z,53.21
2018-10-02T23:08:33.691Z,54.87
2018-10-02T23:11:00.981Z,54.03
2018-10-02T23:13:28.309Z,54.03
2018-10-02T23:15:55.622Z,54.44
2018-10-02T23:18:22.886Z,53.06
2018-10-02T23:20:50.207Z,54.08
2018-10-02T23:23:17.517Z,53.75
2018-10-02T23:25:44.767Z,54.16
2018-10-02T23:28:12.091Z,54.25
2018-10-02T23:30:39.368Z,53.61
2018-10-02T23:33:06.839Z,52.90
2018-10-02T23:35:34.137Z,53.00
2018-10-02T23:38:01.511Z,52.89
2018-10-02T23:40:28.816Z,53.85
2018-10-02T23:42:56.209Z,55.30
2018-10-02T23:45:23.504Z,54.72
2018-10-02T23:47:50.751Z,55.39
2018-10-02T23:50:18.027Z,54.97
2018-10-02T23:52:45.357Z,54.23
2018-10-02T23:55:12.614Z,54.71
2018-10-02T23:57:39.928Z,53.21
